sensor_id;sensor_type;location;lat;lon;timestamp;pressure;altitude;pressure_sealevel;temperature;humidity
54900;BME280;40801;41.924;25.562;2024-03-02T00:00:11;99181.09;;;9.93;81.33
54900;BME280;40801;41.924;25.562;2024-03-02T00:02:45;99180.19;;;9.98;80.67
54900;BME280;40801;41.924;25.562;2024-03-02T00:05:16;99174.38;;;10.04;80.40
54900;BME280;40801;41.924;25.562;2024-03-02T00:07:43;99170.88;;;10.04;79.74
54900;BME280;40801;41.924;25.562;2024-03-02T00:10:11;99170.63;;;9.91;81.02
54900;BME280;40801;41.924;25.562;2024-03-02T00:12:38;99173.81;;;9.93;80.74
54900;BME280;40801;41.924;25.562;2024-03-02T00:17:54;99171.56;;;9.87;81.22
54900;BME280;40801;41.924;25.562;2024-03-02T00:20:22;99161.28;;;9.89;80.61
54900;BME280;40801;41.924;25.562;2024-03-02T00:22:49;99154.97;;;9.93;79.82
54900;BME280;40801;41.924;25.562;2024-03-02T00:25:15;99160.59;;;9.83;80.67
54900;BME280;40801;41.924;25.562;2024-03-02T00:27:40;99157.59;;;9.85;81.09
54900;BME280;40801;41.924;25.562;2024-03-02T00:33:11;99155.31;;;9.78;80.93
54900;BME280;40801;41.924;25.562;2024-03-02T00:35:37;99161.13;;;9.72;80.87
54900;BME280;40801;41.924;25.562;2024-03-02T00:38:05;99147.47;;;9.68;81.46
54900;BME280;40801;41.924;25.562;2024-03-02T00:40:31;99155.66;;;9.63;81.54
54900;BME280;40801;41.924;25.562;2024-03-02T00:42:57;99140.81;;;9.66;82.01
54900;BME280;40801;41.924;25.562;2024-03-02T00:45:23;99144.66;;;9.73;80.91
54900;BME280;40801;41.924;25.562;2024-03-02T00:47:50;99147.66;;;9.72;81.18
54900;BME280;40801;41.924;25.562;2024-03-02T00:50:16;99132.72;;;9.66;81.50
54900;BME280;40801;41.924;25.562;2024-03-02T00:52:41;99139.03;;;9.61;82.12
54900;BME280;40801;41.924;25.562;2024-03-02T00:55:07;99134.44;;;9.61;82.12
54900;BME280;40801;41.924;25.562;2024-03-02T00:57:34;99140.97;;;9.69;81.14
54900;BME280;40801;41.924;25.562;2024-03-02T01:00:02;99135.34;;;9.57;82.14
54900;BME280;40801;41.924;25.562;2024-03-02T01:02:32;99135.38;;;9.43;84.30
54900;BME280;40801;41.924;25.562;2024-03-02T01:04:57;99141.44;;;9.49;83.31
54900;BME280;40801;41.924;25.562;2024-03-02T01:07:22;99137.44;;;9.46;83.58
54900;BME280;40801;41.924;25.562;2024-03-02T01:09:48;99135.94;;;9.54;82.74
54900;BME280;40801;41.924;25.562;2024-03-02T01:12:13;99130.75;;;9.57;82.62
54900;BME280;40801;41.924;25.562;2024-03-02T01:14:39;99145.09;;;9.67;82.18
54900;BME280;40801;41.924;25.562;2024-03-02T01:17:04;99150.28;;;9.63;82.33
54900;BME280;40801;41.924;25.562;2024-03-02T01:19:30;99152.53;;;9.70;82.39
54900;BME280;40801;41.924;25.562;2024-03-02T01:21:56;99153.03;;;9.72;82.15
54900;BME280;40801;41.924;25.562;2024-03-02T01:24:21;99151.25;;;9.67;82.35
54900;BME280;40801;41.924;25.562;2024-03-02T01:26:47;99144.97;;;9.72;81.94
54900;BME280;40801;41.924;25.562;2024-03-02T01:29:12;99146.06;;;9.71;82.07
54900;BME280;40801;41.924;25.562;2024-03-02T01:31:38;99150.16;;;9.68;82.26
54900;BME280;40801;41.924;25.562;2024-03-02T01:34:07;99142.31;;;9.58;82.97
54900;BME280;40801;41.924;25.562;2024-03-02T01:36:32;99140.53;;;9.53;82.93
54900;BME280;40801;41.924;25.562;2024-03-02T01:38:58;99132.44;;;9.53;83.26
54900;BME280;40801;41.924;25.562;2024-03-02T01:41:23;99137.72;;;9.58;83.28
54900;BME280;40801;41.924;25.562;2024-03-02T01:43:49;99136.50;;;9.65;82.67
54900;BME280;40801;41.924;25.562;2024-03-02T01:46:15;99136.88;;;9.72;82.04
54900;BME280;40801;41.924;25.562;2024-03-02T01:48:40;99123.25;;;9.68;82.73
54900;BME280;40801;41.924;25.562;2024-03-02T01:51:06;99128.25;;;9.61;83.02
54900;BME280;40801;41.924;25.562;2024-03-02T01:53:32;99123.72;;;9.70;82.88
54900;BME280;40801;41.924;25.562;2024-03-02T01:55:58;99127.66;;;9.64;82.95
54900;BME280;40801;41.924;25.562;2024-03-02T01:58:23;99125.13;;;9.68;82.92
54900;BME280;40801;41.924;25.562;2024-03-02T02:00:48;99126.53;;;9.65;82.72
54900;BME280;40801;41.924;25.562;2024-03-02T02:03:15;99126.47;;;9.56;83.11
54900;BME280;40801;41.924;25.562;2024-03-02T02:05:42;99122.69;;;9.57;83.48
54900;BME280;40801;41.924;25.562;2024-03-02T02:08:08;99124.59;;;9.57;83.46
54900;BME280;40801;41.924;25.562;2024-03-02T02:10:33;99120.31;;;9.56;83.47
54900;BME280;40801;41.924;25.562;2024-03-02T02:12:58;99121.97;;;9.52;83.59
54900;BME280;40801;41.924;25.562;2024-03-02T02:15:28;99119.41;;;9.47;84.53
54900;BME280;40801;41.924;25.562;2024-03-02T02:17:55;99114.41;;;9.54;83.46
54900;BME280;40801;41.924;25.562;2024-03-02T02:20:20;99118.31;;;9.48;83.53
54900;BME280;40801;41.924;25.562;2024-03-02T02:22:57;99120.50;;;9.46;84.17
54900;BME280;40801;41.924;25.562;2024-03-02T02:25:22;99114.22;;;9.50;83.99
54900;BME280;40801;41.924;25.562;2024-03-02T02:27:48;99106.13;;;9.50;83.57
54900;BME280;40801;41.924;25.562;2024-03-02T02:30:13;99112.00;;;9.52;83.54
54900;BME280;40801;41.924;25.562;2024-03-02T02:32:38;99110.91;;;9.53;84.08
54900;BME280;40801;41.924;25.562;2024-03-02T02:35:04;99113.50;;;9.58;83.48
54900;BME280;40801;41.924;25.562;2024-03-02T02:37:30;99118.78;;;9.63;83.35
54900;BME280;40801;41.924;25.562;2024-03-02T02:39:55;99123.00;;;9.56;83.95
54900;BME280;40801;41.924;25.562;2024-03-02T02:42:20;99125.69;;;9.56;83.91
54900;BME280;40801;41.924;25.562;2024-03-02T02:44:46;99111.81;;;9.49;83.84
54900;BME280;40801;41.924;25.562;2024-03-02T02:47:11;99123.38;;;9.49;83.92
54900;BME280;40801;41.924;25.562;2024-03-02T02:49:36;99112.44;;;9.46;84.21
54900;BME280;40801;41.924;25.562;2024-03-02T02:52:02;99112.31;;;9.51;83.79
54900;BME280;40801;41.924;25.562;2024-03-02T02:54:28;99118.13;;;9.44;84.05
54900;BME280;40801;41.924;25.562;2024-03-02T02:56:53;99117.81;;;9.46;83.94
54900;BME280;40801;41.924;25.562;2024-03-02T02:59:18;99115.81;;;9.51;83.37
54900;BME280;40801;41.924;25.562;2024-03-02T03:01:44;99111.50;;;9.28;85.16
54900;BME280;40801;41.924;25.562;2024-03-02T03:04:09;99109.69;;;9.23;85.15
54900;BME280;40801;41.924;25.562;2024-03-02T03:06:34;99102.72;;;9.22;85.12
54900;BME280;40801;41.924;25.562;2024-03-02T03:09:00;99112.06;;;9.25;85.22
54900;BME280;40801;41.924;25.562;2024-03-02T03:11:25;99100.75;;;9.28;85.05
54900;BME280;40801;41.924;25.562;2024-03-02T03:13:51;99104.09;;;9.34;85.33
54900;BME280;40801;41.924;25.562;2024-03-02T03:16:18;99104.09;;;9.34;84.92
54900;BME280;40801;41.924;25.562;2024-03-02T03:18:43;99110.59;;;9.32;85.48
54900;BME280;40801;41.924;25.562;2024-03-02T03:21:10;99107.41;;;9.30;85.25
54900;BME280;40801;41.924;25.562;2024-03-02T03:23:35;99117.44;;;9.39;84.87
54900;BME280;40801;41.924;25.562;2024-03-02T03:26:00;99104.66;;;9.44;84.30
54900;BME280;40801;41.924;25.562;2024-03-02T03:28:26;99116.16;;;9.36;85.26
54900;BME280;40801;41.924;25.562;2024-03-02T03:30:51;99116.09;;;9.50;83.81
54900;BME280;40801;41.924;25.562;2024-03-02T03:33:17;99107.16;;;9.41;nan
54900;BME280;40801;41.924;25.562;2024-03-02T03:35:42;99112.75;;;9.44;84.43
54900;BME280;40801;41.924;25.562;2024-03-02T03:38:07;99100.81;;;9.37;84.52
54900;BME280;40801;41.924;25.562;2024-03-02T03:40:33;99107.66;;;9.43;84.33
54900;BME280;40801;41.924;25.562;2024-03-02T03:42:58;99105.41;;;9.36;84.54
54900;BME280;40801;41.924;25.562;2024-03-02T03:45:25;99105.59;;;9.40;84.61
54900;BME280;40801;41.924;25.562;2024-03-02T03:47:52;99106.25;;;9.45;84.58
54900;BME280;40801;41.924;25.562;2024-03-02T03:50:17;99110.41;;;9.51;84.17
54900;BME280;40801;41.924;25.562;2024-03-02T03:52:43;99097.97;;;9.55;84.08
54900;BME280;40801;41.924;25.562;2024-03-02T03:55:09;99095.84;;;9.52;83.82
54900;BME280;40801;41.924;25.562;2024-03-02T03:57:35;99094.09;;;9.48;83.95
54900;BME280;40801;41.924;25.562;2024-03-02T04:00:01;99095.50;;;9.45;85.18
54900;BME280;40801;41.924;25.562;2024-03-02T04:02:26;99092.31;;;9.43;85.09
54900;BME280;40801;41.924;25.562;2024-03-02T04:04:51;99093.78;;;9.49;84.67
54900;BME280;40801;41.924;25.562;2024-03-02T04:07:17;99092.84;;;9.54;84.78
54900;BME280;40801;41.924;25.562;2024-03-02T04:09:42;99100.34;;;9.57;84.32
54900;BME280;40801;41.924;25.562;2024-03-02T04:12:08;99094.34;;;9.60;83.47
54900;BME280;40801;41.924;25.562;2024-03-02T04:14:33;99099.31;;;9.67;83.12
54900;BME280;40801;41.924;25.562;2024-03-02T04:16:58;99108.63;;;9.60;83.82
54900;BME280;40801;41.924;25.562;2024-03-02T04:19:24;99103.91;;;9.66;83.41
54900;BME280;40801;41.924;25.562;2024-03-02T04:21:49;99111.78;;;9.62;83.76
54900;BME280;40801;41.924;25.562;2024-03-02T04:24:14;99107.22;;;9.63;83.55
54900;BME280;40801;41.924;25.562;2024-03-02T04:26:40;99114.19;;;9.64;84.04
54900;BME280;40801;41.924;25.562;2024-03-02T04:29:05;99118.66;;;9.69;83.17
54900;BME280;40801;41.924;25.562;2024-03-02T04:31:31;99105.63;;;9.62;84.02
54900;BME280;40801;41.924;25.562;2024-03-02T04:33:56;99107.88;;;9.69;83.07
54900;BME280;40801;41.924;25.562;2024-03-02T04:36:21;99114.19;;;9.64;83.54
54900;BME280;40801;41.924;25.562;2024-03-02T04:38:47;99114.00;;;9.60;84.13
54900;BME280;40801;41.924;25.562;2024-03-02T04:41:13;99114.53;;;9.71;83.07
54900;BME280;40801;41.924;25.562;2024-03-02T04:43:38;99107.75;;;9.74;82.08
54900;BME280;40801;41.924;25.562;2024-03-02T04:46:05;99106.91;;;9.65;82.83
54900;BME280;40801;41.924;25.562;2024-03-02T04:48:31;99107.22;;;9.63;82.91
54900;BME280;40801;41.924;25.562;2024-03-02T04:50:56;99114.66;;;9.66;83.24
54900;BME280;40801;41.924;25.562;2024-03-02T04:53:21;99111.25;;;9.74;82.40
54900;BME280;40801;41.924;25.562;2024-03-02T04:55:47;99098.94;;;9.59;83.38
54900;BME280;40801;41.924;25.562;2024-03-02T04:58:21;99098.25;;;9.54;84.37
54900;BME280;40801;41.924;25.562;2024-03-02T05:00:46;99103.53;;;9.59;84.41
54900;BME280;40801;41.924;25.562;2024-03-02T05:03:12;99081.50;;;9.57;84.35
54900;BME280;40801;41.924;25.562;2024-03-02T05:05:37;99100.13;;;9.53;84.71
54900;BME280;40801;41.924;25.562;2024-03-02T05:08:03;99105.28;;;9.41;85.56
54900;BME280;40801;41.924;25.562;2024-03-02T05:10:29;99112.31;;;9.51;85.37
54900;BME280;40801;41.924;25.562;2024-03-02T05:12:54;99088.66;;;9.61;83.54
54900;BME280;40801;41.924;25.562;2024-03-02T05:15:24;99122.91;;;9.47;85.16
54900;BME280;40801;41.924;25.562;2024-03-02T05:17:50;99120.31;;;9.56;84.80
54900;BME280;40801;41.924;25.562;2024-03-02T05:20:16;99109.59;;;9.65;83.71
54900;BME280;40801;41.924;25.562;2024-03-02T05:22:42;99098.84;;;9.51;85.11
54900;BME280;40801;41.924;25.562;2024-03-02T05:25:08;99105.44;;;9.58;84.52
54900;BME280;40801;41.924;25.562;2024-03-02T05:27:37;99117.47;;;9.61;85.12
54900;BME280;40801;41.924;25.562;2024-03-02T05:30:02;99093.75;;;9.63;85.21
54900;BME280;40801;41.924;25.562;2024-03-02T05:32:28;99111.19;;;9.66;84.90
54900;BME280;40801;41.924;25.562;2024-03-02T05:34:54;99101.09;;;9.71;84.50
54900;BME280;40801;41.924;25.562;2024-03-02T05:37:20;99112.66;;;9.72;84.98
54900;BME280;40801;41.924;25.562;2024-03-02T05:39:45;99110.44;;;9.74;85.17
54900;BME280;40801;41.924;25.562;2024-03-02T05:42:11;99109.84;;;9.77;85.42
54900;BME280;40801;41.924;25.562;2024-03-02T05:44:36;99105.06;;;9.74;85.33
54900;BME280;40801;41.924;25.562;2024-03-02T05:47:02;99116.41;;;9.84;84.76
54900;BME280;40801;41.924;25.562;2024-03-02T05:49:28;99127.53;;;9.69;86.18
54900;BME280;40801;41.924;25.562;2024-03-02T05:51:53;99141.47;;;9.71;85.68
54900;BME280;40801;41.924;25.562;2024-03-02T05:54:19;99147.66;;;9.72;85.91
54900;BME280;40801;41.924;25.562;2024-03-02T05:56:44;99147.13;;;9.83;85.29
54900;BME280;40801;41.924;25.562;2024-03-02T05:59:09;99137.53;;;9.91;84.16
54900;BME280;40801;41.924;25.562;2024-03-02T06:01:42;99139.59;;;9.94;83.10
54900;BME280;40801;41.924;25.562;2024-03-02T06:04:08;99128.94;;;9.89;84.00
54900;BME280;40801;41.924;25.562;2024-03-02T06:06:34;99127.19;;;9.84;84.48
54900;BME280;40801;41.924;25.562;2024-03-02T06:09:04;99122.28;;;9.86;84.25
54900;BME280;40801;41.924;25.562;2024-03-02T06:11:35;99135.66;;;9.78;84.96
54900;BME280;40801;41.924;25.562;2024-03-02T06:14:01;99142.53;;;9.84;84.37
54900;BME280;40801;41.924;25.562;2024-03-02T06:16:27;99136.63;;;9.82;83.94
54900;BME280;40801;41.924;25.562;2024-03-02T06:18:52;99136.56;;;9.73;84.86
54900;BME280;40801;41.924;25.562;2024-03-02T06:21:19;99128.81;;;9.72;85.58
54900;BME280;40801;41.924;25.562;2024-03-02T06:23:44;99124.28;;;9.81;85.21
54900;BME280;40801;41.924;25.562;2024-03-02T06:26:10;99136.53;;;9.87;85.21
54900;BME280;40801;41.924;25.562;2024-03-02T06:28:35;99134.81;;;9.91;84.45
54900;BME280;40801;41.924;25.562;2024-03-02T06:31:02;99127.22;;;9.93;84.50
54900;BME280;40801;41.924;25.562;2024-03-02T06:33:27;99120.00;;;9.80;85.32
54900;BME280;40801;41.924;25.562;2024-03-02T06:35:53;99130.06;;;9.88;85.30
54900;BME280;40801;41.924;25.562;2024-03-02T06:38:19;99138.94;;;9.88;84.82
54900;BME280;40801;41.924;25.562;2024-03-02T06:40:44;99146.94;;;10.02;84.24
54900;BME280;40801;41.924;25.562;2024-03-02T06:43:10;99141.59;;;10.11;83.71
54900;BME280;40801;41.924;25.562;2024-03-02T06:45:35;99135.00;;;10.17;83.42
54900;BME280;40801;41.924;25.562;2024-03-02T06:48:00;99134.69;;;10.18;82.72
54900;BME280;40801;41.924;25.562;2024-03-02T06:50:26;99142.19;;;10.21;83.04
54900;BME280;40801;41.924;25.562;2024-03-02T06:52:52;99138.97;;;10.19;83.20
54900;BME280;40801;41.924;25.562;2024-03-02T06:55:17;99138.75;;;10.30;82.71
54900;BME280;40801;41.924;25.562;2024-03-02T06:57:42;99145.22;;;10.29;82.38
54900;BME280;40801;41.924;25.562;2024-03-02T07:00:08;99144.13;;;10.30;81.78
54900;BME280;40801;41.924;25.562;2024-03-02T07:02:34;99147.44;;;10.27;82.29
54900;BME280;40801;41.924;25.562;2024-03-02T07:05:01;99145.06;;;10.25;82.34
54900;BME280;40801;41.924;25.562;2024-03-02T07:07:26;99152.38;;;10.33;82.10
54900;BME280;40801;41.924;25.562;2024-03-02T07:09:52;99139.41;;;10.35;81.85
54900;BME280;40801;41.924;25.562;2024-03-02T07:12:17;99148.41;;;10.31;81.98
54900;BME280;40801;41.924;25.562;2024-03-02T07:14:42;99145.09;;;10.34;81.95
54900;BME280;40801;41.924;25.562;2024-03-02T07:17:26;99125.31;;;10.38;82.12
54900;BME280;40801;41.924;25.562;2024-03-02T07:19:51;99123.28;;;10.44;82.13
54900;BME280;40801;41.924;25.562;2024-03-02T07:22:17;99125.38;;;10.47;81.96
54900;BME280;40801;41.924;25.562;2024-03-02T07:24:43;99132.22;;;10.53;81.70
54900;BME280;40801;41.924;25.562;2024-03-02T07:27:09;99139.41;;;10.66;80.95
54900;BME280;40801;41.924;25.562;2024-03-02T07:29:35;99127.56;;;10.76;80.63
54900;BME280;40801;41.924;25.562;2024-03-02T07:32:01;99130.72;;;10.78;80.52
54900;BME280;40801;41.924;25.562;2024-03-02T07:34:26;99139.09;;;10.68;80.85
54900;BME280;40801;41.924;25.562;2024-03-02T07:36:52;99153.06;;;10.70;80.77
54900;BME280;40801;41.924;25.562;2024-03-02T07:39:17;99154.69;;;10.79;80.43
54900;BME280;40801;41.924;25.562;2024-03-02T07:41:45;99152.16;;;10.83;80.12
54900;BME280;40801;41.924;25.562;2024-03-02T07:44:11;99147.88;;;10.82;79.96
54900;BME280;40801;41.924;25.562;2024-03-02T07:46:42;99152.97;;;10.92;79.67
54900;BME280;40801;41.924;25.562;2024-03-02T07:49:08;99150.66;;;10.99;79.54
54900;BME280;40801;41.924;25.562;2024-03-02T07:51:34;99134.78;;;11.06;79.05
54900;BME280;40801;41.924;25.562;2024-03-02T07:54:00;99135.28;;;11.08;79.06
54900;BME280;40801;41.924;25.562;2024-03-02T07:56:25;99111.78;;;11.17;79.09
54900;BME280;40801;41.924;25.562;2024-03-02T07:58:51;99110.69;;;11.18;78.66
54900;BME280;40801;41.924;25.562;2024-03-02T11:03:07;99108.63;;;11.24;81.75
54900;BME280;40801;41.924;25.562;2024-03-02T11:05:44;99096.25;;;11.32;81.25
54900;BME280;40801;41.924;25.562;2024-03-02T11:08:14;99097.06;;;11.41;80.97
54900;BME280;40801;41.924;25.562;2024-03-02T11:10:47;99097.38;;;11.48;81.16
54900;BME280;40801;41.924;25.562;2024-03-02T11:13:13;99090.84;;;11.49;80.39
54900;BME280;40801;41.924;25.562;2024-03-02T11:15:44;99088.63;;;11.51;80.41
54900;BME280;40801;41.924;25.562;2024-03-02T11:18:10;99083.72;;;11.44;81.03
54900;BME280;40801;41.924;25.562;2024-03-02T11:20:39;99089.44;;;11.34;81.45
54900;BME280;40801;41.924;25.562;2024-03-02T11:23:06;99087.69;;;11.38;81.81
54900;BME280;40801;41.924;25.562;2024-03-02T11:25:32;99076.56;;;11.48;81.04
54900;BME280;40801;41.924;25.562;2024-03-02T11:28:05;99081.00;;;11.44;81.79
54900;BME280;40801;41.924;25.562;2024-03-02T11:33:00;99083.22;;;11.68;80.30
54900;BME280;40801;41.924;25.562;2024-03-02T11:35:29;99085.63;;;11.61;80.52
54900;BME280;40801;41.924;25.562;2024-03-02T11:37:54;99084.84;;;11.61;80.60
54900;BME280;40801;41.924;25.562;2024-03-02T11:40:24;99081.34;;;11.43;82.14
54900;BME280;40801;41.924;25.562;2024-03-02T11:42:50;99083.38;;;11.55;81.23
54900;BME280;40801;41.924;25.562;2024-03-02T11:45:23;99079.44;;;11.61;81.61
54900;BME280;40801;41.924;25.562;2024-03-02T11:47:57;99082.44;;;11.59;82.01
54900;BME280;40801;41.924;25.562;2024-03-02T11:50:46;99080.22;;;11.53;82.41
54900;BME280;40801;41.924;25.562;2024-03-02T11:53:12;99074.03;;;11.61;81.08
54900;BME280;40801;41.924;25.562;2024-03-02T11:55:39;99082.13;;;11.43;82.65
54900;BME280;40801;41.924;25.562;2024-03-02T11:58:06;99075.91;;;11.52;81.97
54900;BME280;40801;41.924;25.562;2024-03-02T12:00:32;99077.66;;;11.56;82.11
54900;BME280;40801;41.924;25.562;2024-03-02T12:03:08;99068.28;;;11.54;83.17
54900;BME280;40801;41.924;25.562;2024-03-02T12:05:35;99075.16;;;11.60;83.22
54900;BME280;40801;41.924;25.562;2024-03-02T12:08:05;99074.97;;;11.56;82.73
54900;BME280;40801;41.924;25.562;2024-03-02T12:10:32;99077.34;;;11.66;82.80
54900;BME280;40801;41.924;25.562;2024-03-02T12:13:01;99072.75;;;11.67;83.23
54900;BME280;40801;41.924;25.562;2024-03-02T12:15:29;99064.97;;;11.57;83.08
54900;BME280;40801;41.924;25.562;2024-03-02T12:17:56;99070.38;;;11.65;82.98
54900;BME280;40801;41.924;25.562;2024-03-02T12:20:25;99071.47;;;11.47;83.56
54900;BME280;40801;41.924;25.562;2024-03-02T12:22:54;99073.38;;;11.55;82.83
54900;BME280;40801;41.924;25.562;2024-03-02T12:25:21;99064.34;;;11.42;83.69
54900;BME280;40801;41.924;25.562;2024-03-02T12:27:47;99063.06;;;11.57;82.74
54900;BME280;40801;41.924;25.562;2024-03-02T12:30:15;99067.81;;;11.43;83.81
54900;BME280;40801;41.924;25.562;2024-03-02T12:32:41;99069.72;;;11.51;82.68
54900;BME280;40801;41.924;25.562;2024-03-02T12:35:07;99062.44;;;11.34;84.14
54900;BME280;40801;41.924;25.562;2024-03-02T12:37:32;99064.00;;;11.53;83.24
54900;BME280;40801;41.924;25.562;2024-03-02T12:39:58;99062.75;;;11.59;83.52
54900;BME280;40801;41.924;25.562;2024-03-02T12:42:24;99061.31;;;11.61;83.66
54900;BME280;40801;41.924;25.562;2024-03-02T12:44:52;99068.78;;;11.73;82.88
54900;BME280;40801;41.924;25.562;2024-03-02T12:47:21;99066.72;;;11.70;82.22
54900;BME280;40801;41.924;25.562;2024-03-02T12:49:46;99069.09;;;11.71;82.86
54900;BME280;40801;41.924;25.562;2024-03-02T12:52:13;99067.34;;;11.67;82.95
54900;BME280;40801;41.924;25.562;2024-03-02T12:54:38;99072.75;;;11.67;83.18
54900;BME280;40801;41.924;25.562;2024-03-02T12:57:04;99065.94;;;11.61;83.76
54900;BME280;40801;41.924;25.562;2024-03-02T12:59:30;99073.84;;;11.74;82.70
54900;BME280;40801;41.924;25.562;2024-03-02T13:01:56;99067.50;;;11.79;83.22
54900;BME280;40801;41.924;25.562;2024-03-02T13:04:27;99069.41;;;11.96;82.39
54900;BME280;40801;41.924;25.562;2024-03-02T13:06:54;99073.53;;;11.85;83.25
54900;BME280;40801;41.924;25.562;2024-03-02T13:09:21;99072.25;;;11.99;81.91
54900;BME280;40801;41.924;25.562;2024-03-02T13:11:47;99077.66;;;11.99;81.69
54900;BME280;40801;41.924;25.562;2024-03-02T13:14:12;99064.63;;;12.01;81.26
54900;BME280;40801;41.924;25.562;2024-03-02T13:16:41;99065.28;;;11.81;82.41
54900;BME280;40801;41.924;25.562;2024-03-02T13:19:13;99066.41;;;11.80;82.71
54900;BME280;40801;41.924;25.562;2024-03-02T13:21:38;99072.28;;;11.91;82.31
54900;BME280;40801;41.924;25.562;2024-03-02T13:24:05;99067.50;;;11.96;82.73
54900;BME280;40801;41.924;25.562;2024-03-02T13:26:30;99063.94;;;12.13;82.04
54900;BME280;40801;41.924;25.562;2024-03-02T13:28:56;99070.31;;;12.17;81.96
54900;BME280;40801;41.924;25.562;2024-03-02T13:31:22;99068.31;;;11.88;82.97
54900;BME280;40801;41.924;25.562;2024-03-02T13:33:47;99074.31;;;12.02;82.04
54900;BME280;40801;41.924;25.562;2024-03-02T13:36:13;99073.16;;;12.12;82.26
54900;BME280;40801;41.924;25.562;2024-03-02T13:38:38;99075.41;;;12.10;81.76
54900;BME280;40801;41.924;25.562;2024-03-02T13:41:04;99080.00;;;12.09;82.01
54900;BME280;40801;41.924;25.562;2024-03-02T13:43:29;99079.72;;;12.02;82.21
54900;BME280;40801;41.924;25.562;2024-03-02T13:45:58;99078.78;;;11.90;82.71
54900;BME280;40801;41.924;25.562;2024-03-02T13:48:24;99075.44;;;11.84;83.01
54900;BME280;40801;41.924;25.562;2024-03-02T13:50:51;99079.28;;;11.92;83.16
54900;BME280;40801;41.924;25.562;2024-03-02T13:53:17;99072.88;;;12.05;83.01
54900;BME280;40801;41.924;25.562;2024-03-02T13:55:43;99075.88;;;12.12;83.03
54900;BME280;40801;41.924;25.562;2024-03-02T13:58:09;99081.75;;;12.14;82.05
54900;BME280;40801;41.924;25.562;2024-03-02T14:00:35;99069.47;;;12.25;80.93
54900;BME280;40801;41.924;25.562;2024-03-02T14:03:00;99083.50;;;12.19;80.60
54900;BME280;40801;41.924;25.562;2024-03-02T14:05:26;99075.59;;;11.96;81.67
54900;BME280;40801;41.924;25.562;2024-03-02T14:07:51;99075.44;;;11.84;82.19
54900;BME280;40801;41.924;25.562;2024-03-02T14:10:17;99075.75;;;11.74;82.73
54900;BME280;40801;41.924;25.562;2024-03-02T14:12:47;99080.38;;;11.65;83.11
54900;BME280;40801;41.924;25.562;2024-03-02T14:15:12;99073.56;;;11.59;83.52
54900;BME280;40801;41.924;25.562;2024-03-02T14:17:38;99074.50;;;11.63;82.85
54900;BME280;40801;41.924;25.562;2024-03-02T14:20:04;99076.06;;;11.55;83.68
54900;BME280;40801;41.924;25.562;2024-03-02T14:22:30;99081.47;;;11.55;83.38
54900;BME280;40801;41.924;25.562;2024-03-02T14:24:56;99075.44;;;11.49;83.63
54900;BME280;40801;41.924;25.562;2024-03-02T14:27:22;99070.06;;;11.41;84.12
54900;BME280;40801;41.924;25.562;2024-03-02T14:29:47;99076.06;;;11.21;85.25
54900;BME280;40801;41.924;25.562;2024-03-02T14:32:13;99071.31;;;11.17;85.45
54900;BME280;40801;41.924;25.562;2024-03-02T14:34:38;99077.22;;;11.28;84.07
54900;BME280;40801;41.924;25.562;2024-03-02T14:37:04;99073.06;;;11.13;85.04
54900;BME280;40801;41.924;25.562;2024-03-02T14:39:29;99076.22;;;11.15;84.53
54900;BME280;40801;41.924;25.562;2024-03-02T14:41:58;99079.41;;;11.17;84.65
54900;BME280;40801;41.924;25.562;2024-03-02T14:44:23;99077.66;;;11.13;84.73
54900;BME280;40801;41.924;25.562;2024-03-02T14:46:50;99086.06;;;11.20;84.20
54900;BME280;40801;41.924;25.562;2024-03-02T14:49:15;99078.91;;;11.15;84.48
54900;BME280;40801;41.924;25.562;2024-03-02T14:51:41;99090.97;;;11.09;84.71
54900;BME280;40801;41.924;25.562;2024-03-02T14:54:06;99092.09;;;11.08;84.93
54900;BME280;40801;41.924;25.562;2024-03-02T14:56:32;99085.44;;;11.14;84.36
54900;BME280;40801;41.924;25.562;2024-03-02T14:58:57;99085.09;;;10.99;85.52
54900;BME280;40801;41.924;25.562;2024-03-02T15:01:23;99095.44;;;11.14;84.45
54900;BME280;40801;41.924;25.562;2024-03-02T15:03:50;99090.97;;;11.01;85.41
54900;BME280;40801;41.924;25.562;2024-03-02T15:06:15;99093.19;;;11.07;84.56
54900;BME280;40801;41.924;25.562;2024-03-02T15:08:41;99095.09;;;11.07;84.53
54900;BME280;40801;41.924;25.562;2024-03-02T15:11:07;99097.50;;;11.08;84.28
54900;BME280;40801;41.924;25.562;2024-03-02T15:13:33;99101.94;;;11.04;85.26
54900;BME280;40801;41.924;25.562;2024-03-02T15:15:59;99096.06;;;11.02;85.04
54900;BME280;40801;41.924;25.562;2024-03-02T15:18:24;99105.41;;;11.05;84.95
54900;BME280;40801;41.924;25.562;2024-03-02T15:20:50;99098.72;;;10.94;85.56
54900;BME280;40801;41.924;25.562;2024-03-02T15:23:15;99106.16;;;10.88;86.29
54900;BME280;40801;41.924;25.562;2024-03-02T15:25:41;99110.78;;;10.96;85.53
54900;BME280;40801;41.924;25.562;2024-03-02T15:28:06;99113.75;;;10.77;86.91
54900;BME280;40801;41.924;25.562;2024-03-02T15:30:32;99121.06;;;10.85;86.34
54900;BME280;40801;41.924;25.562;2024-03-02T15:32:57;99117.28;;;10.86;86.55
54900;BME280;40801;41.924;25.562;2024-03-02T15:35:23;99127.75;;;10.88;86.72
54900;BME280;40801;41.924;25.562;2024-03-02T15:37:48;99121.69;;;10.82;87.17
54900;BME280;40801;41.924;25.562;2024-03-02T15:40:13;99127.88;;;10.83;87.22
54900;BME280;40801;41.924;25.562;2024-03-02T15:42:39;99130.75;;;10.86;87.16
54900;BME280;40801;41.924;25.562;2024-03-02T15:45:04;99126.81;;;10.93;85.94
54900;BME280;40801;41.924;25.562;2024-03-02T15:47:30;99131.53;;;10.87;86.31
54900;BME280;40801;41.924;25.562;2024-03-02T15:49:55;99138.81;;;10.78;87.17
54900;BME280;40801;41.924;25.562;2024-03-02T15:52:21;99150.06;;;10.71;87.56
54900;BME280;40801;41.924;25.562;2024-03-02T15:54:49;99145.03;;;10.87;85.92
54900;BME280;40801;41.924;25.562;2024-03-02T15:57:15;99149.31;;;10.88;85.99
54900;BME280;40801;41.924;25.562;2024-03-02T15:59:42;99156.75;;;10.82;86.23